sensor_id;sensor_type;location;lat;lon;timestamp;P1;durP1;ratioP1;P2;durP2;ratioP2
33104;SDS011;19476;51.448;6.674;2023-07-31T00:00:33;3.65;;;1.70;;
33104;SDS011;19476;51.448;6.674;2023-07-31T00:02:59;6.10;;;1.92;;
33104;SDS011;19476;51.448;6.674;2023-07-31T00:05:25;5.68;;;2.25;;
33104;SDS011;19476;51.448;6.674;2023-07-31T00:07:50;3.42;;;1.65;;
33104;SDS011;19476;51.448;6.674;2023-07-31T00:10:16;5.43;;;2.22;;
33104;SDS011;19476;51.448;6.674;2023-07-31T00:12:42;7.10;;;2.38;;
33104;SDS011;19476;51.448;6.674;2023-07-31T00:15:11;5.60;;;2.17;;
33104;SDS011;19476;51.448;6.674;2023-07-31T00:17:39;6.07;;;2.10;;
33104;SDS011;19476;51.448;6.674;2023-07-31T00:20:04;4.90;;;2.45;;
33104;SDS011;19476;51.448;6.674;2023-07-31T00:22:30;6.25;;;2.25;;
33104;SDS011;19476;51.448;6.674;2023-07-31T00:24:56;7.97;;;2.67;;
33104;SDS011;19476;51.448;6.674;2023-07-31T00:27:22;6.15;;;2.15;;
33104;SDS011;19476;51.448;6.674;2023-07-31T00:29:48;5.93;;;2.30;;
33104;SDS011;19476;51.448;6.674;2023-07-31T00:32:14;6.95;;;2.85;;
33104;SDS011;19476;51.448;6.674;2023-07-31T00:34:40;6.72;;;2.35;;
33104;SDS011;19476;51.448;6.674;2023-07-31T00:37:06;6.30;;;2.35;;
33104;SDS011;19476;51.448;6.674;2023-07-31T00:39:33;7.75;;;2.53;;
33104;SDS011;19476;51.448;6.674;2023-07-31T00:41:59;6.32;;;2.70;;
33104;SDS011;19476;51.448;6.674;2023-07-31T00:44:25;7.20;;;2.65;;
33104;SDS011;19476;51.448;6.674;2023-07-31T00:46:51;6.45;;;1.92;;
33104;SDS011;19476;51.448;6.674;2023-07-31T00:49:17;8.32;;;2.55;;
33104;SDS011;19476;51.448;6.674;2023-07-31T00:51:43;5.90;;;1.88;;
33104;SDS011;19476;51.448;6.674;2023-07-31T00:54:09;6.07;;;2.05;;
33104;SDS011;19476;51.448;6.674;2023-07-31T00:56:36;4.95;;;1.90;;
33104;SDS011;19476;51.448;6.674;2023-07-31T00:59:02;6.05;;;2.33;;
33104;SDS011;19476;51.448;6.674;2023-07-31T01:01:28;6.63;;;2.45;;
33104;SDS011;19476;51.448;6.674;2023-07-31T01:03:54;6.90;;;2.30;;
33104;SDS011;19476;51.448;6.674;2023-07-31T01:06:31;6.43;;;2.55;;
33104;SDS011;19476;51.448;6.674;2023-07-31T01:11:38;5.22;;;2.28;;
33104;SDS011;19476;51.448;6.674;2023-07-31T01:14:11;6.60;;;2.20;;
33104;SDS011;19476;51.448;6.674;2023-07-31T01:16:37;5.00;;;2.17;;
33104;SDS011;19476;51.448;6.674;2023-07-31T01:19:03;5.18;;;1.80;;
33104;SDS011;19476;51.448;6.674;2023-07-31T01:26:47;5.53;;;1.92;;
33104;SDS011;19476;51.448;6.674;2023-07-31T01:29:30;5.70;;;2.53;;
33104;SDS011;19476;51.448;6.674;2023-07-31T01:32:02;7.53;;;2.20;;
33104;SDS011;19476;51.448;6.674;2023-07-31T01:34:30;6.47;;;2.33;;
33104;SDS011;19476;51.448;6.674;2023-07-31T01:36:57;5.55;;;1.92;;
33104;SDS011;19476;51.448;6.674;2023-07-31T01:39:23;7.30;;;2.25;;
33104;SDS011;19476;51.448;6.674;2023-07-31T01:41:49;5.22;;;1.98;;
33104;SDS011;19476;51.448;6.674;2023-07-31T01:44:15;6.18;;;1.73;;
33104;SDS011;19476;51.448;6.674;2023-07-31T01:46:41;6.55;;;2.33;;
33104;SDS011;19476;51.448;6.674;2023-07-31T01:49:06;7.18;;;2.42;;
33104;SDS011;19476;51.448;6.674;2023-07-31T01:51:32;4.85;;;2.05;;
33104;SDS011;19476;51.448;6.674;2023-07-31T01:54:01;8.20;;;2.50;;
33104;SDS011;19476;51.448;6.674;2023-07-31T01:56:26;6.57;;;2.25;;
33104;SDS011;19476;51.448;6.674;2023-07-31T01:58:52;4.93;;;1.85;;
33104;SDS011;19476;51.448;6.674;2023-07-31T02:01:18;4.82;;;1.98;;
33104;SDS011;19476;51.448;6.674;2023-07-31T02:03:43;6.57;;;2.53;;
33104;SDS011;19476;51.448;6.674;2023-07-31T02:06:09;6.28;;;2.40;;
33104;SDS011;19476;51.448;6.674;2023-07-31T02:08:35;8.88;;;2.47;;
33104;SDS011;19476;51.448;6.674;2023-07-31T02:11:01;5.72;;;2.17;;
33104;SDS011;19476;51.448;6.674;2023-07-31T02:13:26;8.10;;;2.50;;
33104;SDS011;19476;51.448;6.674;2023-07-31T02:15:52;7.65;;;2.40;;
33104;SDS011;19476;51.448;6.674;2023-07-31T02:18:19;5.05;;;2.05;;
33104;SDS011;19476;51.448;6.674;2023-07-31T02:20:48;5.40;;;2.65;;
33104;SDS011;19476;51.448;6.674;2023-07-31T02:23:18;5.28;;;2.08;;
33104;SDS011;19476;51.448;6.674;2023-07-31T02:25:44;4.97;;;2.22;;
33104;SDS011;19476;51.448;6.674;2023-07-31T02:28:10;6.15;;;2.13;;
33104;SDS011;19476;51.448;6.674;2023-07-31T02:30:36;6.85;;;2.50;;
33104;SDS011;19476;51.448;6.674;2023-07-31T02:33:02;7.55;;;2.42;;
33104;SDS011;19476;51.448;6.674;2023-07-31T02:35:28;7.13;;;2.25;;
33104;SDS011;19476;51.448;6.674;2023-07-31T02:37:54;5.93;;;2.17;;
33104;SDS011;19476;51.448;6.674;2023-07-31T02:40:20;7.05;;;2.28;;
33104;SDS011;19476;51.448;6.674;2023-07-31T02:42:46;5.88;;;2.40;;
33104;SDS011;19476;51.448;6.674;2023-07-31T02:45:11;4.47;;;1.98;;
33104;SDS011;19476;51.448;6.674;2023-07-31T02:47:37;7.03;;;2.28;;
33104;SDS011;19476;51.448;6.674;2023-07-31T02:50:03;5.35;;;2.30;;
33104;SDS011;19476;51.448;6.674;2023-07-31T02:52:30;5.93;;;2.10;;
33104;SDS011;19476;51.448;6.674;2023-07-31T02:54:55;6.20;;;2.70;;
33104;SDS011;19476;51.448;6.674;2023-07-31T02:57:22;5.90;;;2.22;;
33104;SDS011;19476;51.448;6.674;2023-07-31T02:59:48;5.05;;;2.10;;
33104;SDS011;19476;51.448;6.674;2023-07-31T03:02:14;6.70;;;2.50;;
33104;SDS011;19476;51.448;6.674;2023-07-31T03:04:40;6.88;;;2.47;;
33104;SDS011;19476;51.448;6.674;2023-07-31T03:07:05;5.43;;;2.05;;
33104;SDS011;19476;51.448;6.674;2023-07-31T03:09:31;5.43;;;2.00;;
33104;SDS011;19476;51.448;6.674;2023-07-31T03:11:57;7.82;;;2.20;;
33104;SDS011;19476;51.448;6.674;2023-07-31T03:14:22;6.25;;;2.25;;
33104;SDS011;19476;51.448;6.674;2023-07-31T03:16:48;7.15;;;2.50;;
33104;SDS011;19476;51.448;6.674;2023-07-31T03:19:14;5.15;;;2.30;;
33104;SDS011;19476;51.448;6.674;2023-07-31T03:21:40;5.63;;;2.30;;
33104;SDS011;19476;51.448;6.674;2023-07-31T03:24:06;7.97;;;2.28;;
33104;SDS011;19476;51.448;6.674;2023-07-31T03:26:32;5.03;;;1.73;;
33104;SDS011;19476;51.448;6.674;2023-07-31T03:28:58;6.82;;;2.10;;
33104;SDS011;19476;51.448;6.674;2023-07-31T03:31:24;6.90;;;2.67;;
33104;SDS011;19476;51.448;6.674;2023-07-31T03:33:49;8.55;;;2.30;;
33104;SDS011;19476;51.448;6.674;2023-07-31T03:36:15;6.20;;;2.17;;
33104;SDS011;19476;51.448;6.674;2023-07-31T03:38:41;5.70;;;2.72;;
33104;SDS011;19476;51.448;6.674;2023-07-31T03:41:06;6.55;;;2.20;;
33104;SDS011;19476;51.448;6.674;2023-07-31T03:43:32;4.32;;;2.15;;
33104;SDS011;19476;51.448;6.674;2023-07-31T03:46:01;5.32;;;2.40;;
33104;SDS011;19476;51.448;6.674;2023-07-31T03:48:27;5.78;;;2.28;;
33104;SDS011;19476;51.448;6.674;2023-07-31T03:50:53;6.70;;;2.42;;
33104;SDS011;19476;51.448;6.674;2023-07-31T03:53:19;9.02;;;2.40;;
33104;SDS011;19476;51.448;6.674;2023-07-31T03:55:45;5.28;;;2.15;;
33104;SDS011;19476;51.448;6.674;2023-07-31T03:58:11;4.68;;;1.83;;
33104;SDS011;19476;51.448;6.674;2023-07-31T04:00:36;6.80;;;1.90;;
33104;SDS011;19476;51.448;6.674;2023-07-31T04:03:02;4.85;;;2.15;;
33104;SDS011;19476;51.448;6.674;2023-07-31T04:05:29;5.47;;;2.17;;
33104;SDS011;19476;51.448;6.674;2023-07-31T04:07:56;4.55;;;1.90;;
33104;SDS011;19476;51.448;6.674;2023-07-31T04:10:22;7.00;;;1.88;;
33104;SDS011;19476;51.448;6.674;2023-07-31T04:12:48;5.18;;;2.20;;
33104;SDS011;19476;51.448;6.674;2023-07-31T04:15:14;4.97;;;1.85;;
33104;SDS011;19476;51.448;6.674;2023-07-31T04:17:39;6.72;;;2.30;;
33104;SDS011;19476;51.448;6.674;2023-07-31T04:20:05;5.78;;;2.10;;
33104;SDS011;19476;51.448;6.674;2023-07-31T04:22:31;6.93;;;2.50;;
33104;SDS011;19476;51.448;6.674;2023-07-31T04:24:57;5.40;;;2.28;;
33104;SDS011;19476;51.448;6.674;2023-07-31T04:27:23;6.85;;;1.90;;
33104;SDS011;19476;51.448;6.674;2023-07-31T04:29:49;5.47;;;2.08;;
33104;SDS011;19476;51.448;6.674;2023-07-31T04:32:14;7.82;;;2.40;;
33104;SDS011;19476;51.448;6.674;2023-07-31T04:34:44;4.03;;;1.83;;
33104;SDS011;19476;51.448;6.674;2023-07-31T04:37:10;5.63;;;2.28;;
33104;SDS011;19476;51.448;6.674;2023-07-31T04:39:35;4.60;;;1.92;;
33104;SDS011;19476;51.448;6.674;2023-07-31T04:42:01;5.97;;;2.38;;
33104;SDS011;19476;51.448;6.674;2023-07-31T04:44:27;6.75;;;2.22;;
33104;SDS011;19476;51.448;6.674;2023-07-31T04:46:53;6.97;;;2.42;;
33104;SDS011;19476;51.448;6.674;2023-07-31T04:49:19;5.35;;;2.17;;
33104;SDS011;19476;51.448;6.674;2023-07-31T04:51:44;5.07;;;2.13;;
33104;SDS011;19476;51.448;6.674;2023-07-31T04:54:10;4.38;;;2.13;;
33104;SDS011;19476;51.448;6.674;2023-07-31T04:56:37;8.70;;;2.97;;
33104;SDS011;19476;51.448;6.674;2023-07-31T04:59:03;3.90;;;2.10;;
33104;SDS011;19476;51.448;6.674;2023-07-31T05:01:29;6.72;;;2.47;;
33104;SDS011;19476;51.448;6.674;2023-07-31T05:03:55;6.07;;;2.40;;
33104;SDS011;19476;51.448;6.674;2023-07-31T05:06:20;7.07;;;2.25;;
33104;SDS011;19476;51.448;6.674;2023-07-31T05:08:46;4.50;;;2.13;;
33104;SDS011;19476;51.448;6.674;2023-07-31T05:11:12;5.80;;;2.33;;
33104;SDS011;19476;51.448;6.674;2023-07-31T05:13:37;5.28;;;2.38;;
33104;SDS011;19476;51.448;6.674;2023-07-31T05:16:03;4.93;;;2.15;;
33104;SDS011;19476;51.448;6.674;2023-07-31T05:18:29;4.95;;;2.03;;
33104;SDS011;19476;51.448;6.674;2023-07-31T05:20:55;5.10;;;2.35;;
33104;SDS011;19476;51.448;6.674;2023-07-31T05:23:20;7.70;;;2.17;;
33104;SDS011;19476;51.448;6.674;2023-07-31T05:25:46;4.32;;;1.90;;
33104;SDS011;19476;51.448;6.674;2023-07-31T05:28:12;4.45;;;1.90;;
33104;SDS011;19476;51.448;6.674;2023-07-31T05:30:38;7.05;;;2.40;;
33104;SDS011;19476;51.448;6.674;2023-07-31T05:33:04;8.75;;;2.58;;
33104;SDS011;19476;51.448;6.674;2023-07-31T05:35:29;5.10;;;2.15;;
33104;SDS011;19476;51.448;6.674;2023-07-31T05:37:55;4.22;;;2.10;;
33104;SDS011;19476;51.448;6.674;2023-07-31T05:40:21;6.00;;;2.20;;
33104;SDS011;19476;51.448;6.674;2023-07-31T05:42:46;5.30;;;2.30;;
33104;SDS011;19476;51.448;6.674;2023-07-31T05:45:12;7.18;;;2.42;;
33104;SDS011;19476;51.448;6.674;2023-07-31T05:47:39;7.10;;;2.53;;
33104;SDS011;19476;51.448;6.674;2023-07-31T05:50:04;8.50;;;2.17;;
33104;SDS011;19476;51.448;6.674;2023-07-31T05:52:30;5.63;;;2.50;;
33104;SDS011;19476;51.448;6.674;2023-07-31T05:54:56;6.25;;;2.03;;
33104;SDS011;19476;51.448;6.674;2023-07-31T05:57:22;4.68;;;1.98;;
33104;SDS011;19476;51.448;6.674;2023-07-31T05:59:48;5.43;;;2.35;;
33104;SDS011;19476;51.448;6.674;2023-07-31T06:02:14;4.63;;;2.20;;
33104;SDS011;19476;51.448;6.674;2023-07-31T06:04:39;3.95;;;2.08;;
33104;SDS011;19476;51.448;6.674;2023-07-31T06:07:05;4.55;;;2.10;;
33104;SDS011;19476;51.448;6.674;2023-07-31T06:09:31;6.28;;;2.47;;
33104;SDS011;19476;51.448;6.674;2023-07-31T06:11:57;5.43;;;2.75;;
33104;SDS011;19476;51.448;6.674;2023-07-31T06:14:23;3.92;;;1.90;;
33104;SDS011;19476;51.448;6.674;2023-07-31T06:16:48;6.10;;;2.10;;
33104;SDS011;19476;51.448;6.674;2023-07-31T06:19:14;5.78;;;2.33;;
33104;SDS011;19476;51.448;6.674;2023-07-31T06:21:40;3.95;;;2.08;;
33104;SDS011;19476;51.448;6.674;2023-07-31T06:24:08;3.35;;;2.28;;
33104;SDS011;19476;51.448;6.674;2023-07-31T06:26:34;6.82;;;2.90;;
33104;SDS011;19476;51.448;6.674;2023-07-31T06:29:00;6.72;;;2.63;;
33104;SDS011;19476;51.448;6.674;2023-07-31T06:31:25;5.47;;;2.20;;
33104;SDS011;19476;51.448;6.674;2023-07-31T06:33:51;5.97;;;2.65;;
33104;SDS011;19476;51.448;6.674;2023-07-31T06:36:17;5.03;;;2.70;;
33104;SDS011;19476;51.448;6.674;2023-07-31T06:38:43;5.90;;;2.20;;
33104;SDS011;19476;51.448;6.674;2023-07-31T06:41:09;4.75;;;2.47;;
33104;SDS011;19476;51.448;6.674;2023-07-31T06:43:35;5.13;;;2.30;;
33104;SDS011;19476;51.448;6.674;2023-07-31T06:46:05;5.95;;;2.22;;
33104;SDS011;19476;51.448;6.674;2023-07-31T06:48:32;5.47;;;2.58;;
33104;SDS011;19476;51.448;6.674;2023-07-31T06:50:58;4.03;;;2.00;;
33104;SDS011;19476;51.448;6.674;2023-07-31T06:53:25;6.75;;;2.17;;
33104;SDS011;19476;51.448;6.674;2023-07-31T06:55:51;5.45;;;2.20;;
33104;SDS011;19476;51.448;6.674;2023-07-31T06:58:17;4.80;;;2.15;;
33104;SDS011;19476;51.448;6.674;2023-07-31T07:00:42;4.72;;;2.03;;
33104;SDS011;19476;51.448;6.674;2023-07-31T07:03:08;4.40;;;2.20;;
33104;SDS011;19476;51.448;6.674;2023-07-31T07:05:34;5.07;;;2.05;;
33104;SDS011;19476;51.448;6.674;2023-07-31T07:07:59;5.55;;;1.90;;
33104;SDS011;19476;51.448;6.674;2023-07-31T07:10:25;6.43;;;2.47;;
33104;SDS011;19476;51.448;6.674;2023-07-31T07:12:51;5.60;;;2.38;;
33104;SDS011;19476;51.448;6.674;2023-07-31T07:15:17;4.68;;;2.00;;
33104;SDS011;19476;51.448;6.674;2023-07-31T07:17:42;4.47;;;2.35;;
33104;SDS011;19476;51.448;6.674;2023-07-31T07:20:08;5.68;;;2.05;;
33104;SDS011;19476;51.448;6.674;2023-07-31T07:22:34;4.47;;;1.75;;
33104;SDS011;19476;51.448;6.674;2023-07-31T07:25:00;3.92;;;1.88;;
33104;SDS011;19476;51.448;6.674;2023-07-31T07:27:25;3.88;;;1.70;;
33104;SDS011;19476;51.448;6.674;2023-07-31T07:29:51;5.30;;;2.50;;
33104;SDS011;19476;51.448;6.674;2023-07-31T07:32:20;4.47;;;2.15;;
33104;SDS011;19476;51.448;6.674;2023-07-31T07:34:47;4.32;;;1.98;;
33104;SDS011;19476;51.448;6.674;2023-07-31T07:37:13;5.50;;;2.05;;
33104;SDS011;19476;51.448;6.674;2023-07-31T07:39:39;4.07;;;1.85;;
33104;SDS011;19476;51.448;6.674;2023-07-31T07:42:05;4.22;;;1.63;;
33104;SDS011;19476;51.448;6.674;2023-07-31T07:44:31;5.32;;;2.08;;
33104;SDS011;19476;51.448;6.674;2023-07-31T07:46:57;4.28;;;1.65;;
33104;SDS011;19476;51.448;6.674;2023-07-31T07:49:23;3.30;;;1.70;;
33104;SDS011;19476;51.448;6.674;2023-07-31T07:51:49;4.75;;;1.50;;
33104;SDS011;19476;51.448;6.674;2023-07-31T07:54:15;2.47;;;1.30;;
33104;SDS011;19476;51.448;6.674;2023-07-31T07:56:42;4.35;;;1.48;;
33104;SDS011;19476;51.448;6.674;2023-07-31T07:59:08;4.32;;;1.75;;
33104;SDS011;19476;51.448;6.674;2023-07-31T08:01:34;2.83;;;1.15;;
33104;SDS011;19476;51.448;6.674;2023-07-31T08:03:59;3.20;;;1.45;;
33104;SDS011;19476;51.448;6.674;2023-07-31T08:06:25;3.05;;;1.42;;
33104;SDS011;19476;51.448;6.674;2023-07-31T08:08:51;3.15;;;1.52;;
33104;SDS011;19476;51.448;6.674;2023-07-31T08:11:17;3.25;;;1.20;;
33104;SDS011;19476;51.448;6.674;2023-07-31T08:13:42;5.53;;;1.60;;
33104;SDS011;19476;51.448;6.674;2023-07-31T08:16:08;3.53;;;1.20;;
33104;SDS011;19476;51.448;6.674;2023-07-31T08:18:35;2.50;;;1.25;;
33104;SDS011;19476;51.448;6.674;2023-07-31T08:21:01;2.13;;;1.05;;
33104;SDS011;19476;51.448;6.674;2023-07-31T08:23:28;3.60;;;1.50;;
33104;SDS011;19476;51.448;6.674;2023-07-31T08:25:53;2.53;;;1.23;;
33104;SDS011;19476;51.448;6.674;2023-07-31T08:28:19;2.38;;;1.15;;
33104;SDS011;19476;51.448;6.674;2023-07-31T08:30:45;4.68;;;1.58;;
33104;SDS011;19476;51.448;6.674;2023-07-31T08:33:11;2.85;;;1.30;;
33104;SDS011;19476;51.448;6.674;2023-07-31T08:35:36;4.30;;;1.40;;
33104;SDS011;19476;51.448;6.674;2023-07-31T08:38:02;2.88;;;1.35;;
33104;SDS011;19476;51.448;6.674;2023-07-31T08:40:28;3.55;;;1.42;;
33104;SDS011;19476;51.448;6.674;2023-07-31T08:42:55;2.90;;;1.35;;
33104;SDS011;19476;51.448;6.674;2023-07-31T08:45:27;2.78;;;1.55;;
33104;SDS011;19476;51.448;6.674;2023-07-31T08:47:54;3.08;;;1.45;;
33104;SDS011;19476;51.448;6.674;2023-07-31T08:50:21;2.85;;;1.42;;
33104;SDS011;19476;51.448;6.674;2023-07-31T08:52:48;3.78;;;1.63;;
33104;SDS011;19476;51.448;6.674;2023-07-31T08:55:15;5.55;;;1.85;;
33104;SDS011;19476;51.448;6.674;2023-07-31T08:57:42;3.95;;;1.42;;
33104;SDS011;19476;51.448;6.674;2023-07-31T09:00:09;5.05;;;1.65;;
33104;SDS011;19476;51.448;6.674;2023-07-31T09:05:14;2.70;;;1.35;;
33104;SDS011;19476;51.448;6.674;2023-07-31T09:07:41;3.83;;;1.63;;
33104;SDS011;19476;51.448;6.674;2023-07-31T09:12:37;3.03;;;1.42;;
33104;SDS011;19476;51.448;6.674;2023-07-31T09:15:04;4.57;;;1.92;;
33104;SDS011;19476;51.448;6.674;2023-07-31T09:17:34;4.45;;;1.55;;
33104;SDS011;19476;51.448;6.674;2023-07-31T09:20:14;3.25;;;1.45;;
33104;SDS011;19476;51.448;6.674;2023-07-31T09:22:44;3.47;;;1.58;;
33104;SDS011;19476;51.448;6.674;2023-07-31T09:25:28;2.72;;;1.33;;
33104;SDS011;19476;51.448;6.674;2023-07-31T09:27:58;3.95;;;1.60;;
33104;SDS011;19476;51.448;6.674;2023-07-31T09:30:25;2.80;;;1.27;;
33104;SDS011;19476;51.448;6.674;2023-07-31T09:33:00;2.90;;;1.38;;
33104;SDS011;19476;51.448;6.674;2023-07-31T09:35:31;3.92;;;1.60;;
33104;SDS011;19476;51.448;6.674;2023-07-31T09:40:31;1.77;;;1.15;;
33104;SDS011;19476;51.448;6.674;2023-07-31T09:46:20;3.08;;;1.35;;
33104;SDS011;19476;51.448;6.674;2023-07-31T09:48:46;2.63;;;1.20;;
33104;SDS011;19476;51.448;6.674;2023-07-31T09:51:12;2.20;;;1.10;;
33104;SDS011;19476;51.448;6.674;2023-07-31T09:53:38;2.45;;;1.30;;
33104;SDS011;19476;51.448;6.674;2023-07-31T09:56:04;3.47;;;1.80;;
33104;SDS011;19476;51.448;6.674;2023-07-31T09:58:30;2.90;;;1.50;;
33104;SDS011;19476;51.448;6.674;2023-07-31T10:00:59;1.67;;;1.10;;
33104;SDS011;19476;51.448;6.674;2023-07-31T10:03:26;2.67;;;1.10;;
33104;SDS011;19476;51.448;6.674;2023-07-31T10:05:55;3.35;;;1.23;;
33104;SDS011;19476;51.448;6.674;2023-07-31T10:08:23;3.00;;;1.17;;
33104;SDS011;19476;51.448;6.674;2023-07-31T10:10:55;2.40;;;1.30;;
33104;SDS011;19476;51.448;6.674;2023-07-31T10:13:24;3.65;;;1.20;;
33104;SDS011;19476;51.448;6.674;2023-07-31T10:15:52;1.95;;;1.20;;
33104;SDS011;19476;51.448;6.674;2023-07-31T10:18:19;2.85;;;1.50;;
33104;SDS011;19476;51.448;6.674;2023-07-31T10:20:46;2.38;;;1.30;;
33104;SDS011;19476;51.448;6.674;2023-07-31T10:23:12;1.80;;;1.30;;
33104;SDS011;19476;51.448;6.674;2023-07-31T10:25:38;2.78;;;1.45;;
33104;SDS011;19476;51.448;6.674;2023-07-31T10:28:04;3.75;;;1.70;;
33104;SDS011;19476;51.448;6.674;2023-07-31T10:30:32;3.15;;;1.30;;
33104;SDS011;19476;51.448;6.674;2023-07-31T10:33:02;4.32;;;1.27;;
33104;SDS011;19476;51.448;6.674;2023-07-31T10:35:29;3.45;;;1.58;;
33104;SDS011;19476;51.448;6.674;2023-07-31T10:37:55;1.98;;;1.23;;
33104;SDS011;19476;51.448;6.674;2023-07-31T10:40:25;7.32;;;1.75;;
33104;SDS011;19476;51.448;6.674;2023-07-31T10:42:52;2.50;;;1.17;;
33104;SDS011;19476;51.448;6.674;2023-07-31T10:48:15;3.38;;;1.58;;
33104;SDS011;19476;51.448;6.674;2023-07-31T10:50:51;2.90;;;1.27;;
33104;SDS011;19476;51.448;6.674;2023-07-31T10:53:24;2.90;;;1.45;;
33104;SDS011;19476;51.448;6.674;2023-07-31T10:55:52;5.45;;;1.45;;
33104;SDS011;19476;51.448;6.674;2023-07-31T10:58:19;1.95;;;1.23;;
33104;SDS011;19476;51.448;6.674;2023-07-31T11:00:46;2.40;;;1.40;;
33104;SDS011;19476;51.448;6.674;2023-07-31T11:03:18;4.60;;;1.90;;
33104;SDS011;19476;51.448;6.674;2023-07-31T11:08:35;3.40;;;1.55;;
33104;SDS011;19476;51.448;6.674;2023-07-31T11:11:07;3.90;;;1.75;;
33104;SDS011;19476;51.448;6.674;2023-07-31T11:13:39;2.80;;;1.30;;
33104;SDS011;19476;51.448;6.674;2023-07-31T11:16:11;2.75;;;1.33;;
33104;SDS011;19476;51.448;6.674;2023-07-31T11:18:39;2.85;;;1.30;;
33104;SDS011;19476;51.448;6.674;2023-07-31T11:21:06;2.53;;;1.10;;
33104;SDS011;19476;51.448;6.674;2023-07-31T11:23:32;2.83;;;1.38;;
33104;SDS011;19476;51.448;6.674;2023-07-31T11:26:01;4.18;;;1.30;;
33104;SDS011;19476;51.448;6.674;2023-07-31T11:28:30;3.60;;;1.38;;
33104;SDS011;19476;51.448;6.674;2023-07-31T11:31:00;2.25;;;1.17;;
33104;SDS011;19476;51.448;6.674;2023-07-31T11:33:27;3.53;;;1.20;;
33104;SDS011;19476;51.448;6.674;2023-07-31T11:35:52;4.07;;;1.40;;
33104;SDS011;19476;51.448;6.674;2023-07-31T11:38:26;4.45;;;1.35;;
33104;SDS011;19476;51.448;6.674;2023-07-31T11:40:59;2.78;;;1.33;;
33104;SDS011;19476;51.448;6.674;2023-07-31T11:43:27;2.20;;;1.13;;
33104;SDS011;19476;51.448;6.674;2023-07-31T11:45:57;1.90;;;1.08;;
33104;SDS011;19476;51.448;6.674;2023-07-31T11:48:25;2.90;;;1.30;;
33104;SDS011;19476;51.448;6.674;2023-07-31T11:50:53;3.17;;;1.27;;
33104;SDS011;19476;51.448;6.674;2023-07-31T11:53:28;2.70;;;1.30;;
33104;SDS011;19476;51.448;6.674;2023-07-31T11:56:03;2.55;;;1.35;;
33104;SDS011;19476;51.448;6.674;2023-07-31T11:58:31;2.10;;;1.10;;
33104;SDS011;19476;51.448;6.674;2023-07-31T12:00:59;2.22;;;1.10;;
33104;SDS011;19476;51.448;6.674;2023-07-31T12:03:25;2.33;;;1.35;;
33104;SDS011;19476;51.448;6.674;2023-07-31T12:05:54;2.72;;;1.30;;
33104;SDS011;19476;51.448;6.674;2023-07-31T12:08:21;3.67;;;1.10;;
33104;SDS011;19476;51.448;6.674;2023-07-31T12:10:51;2.65;;;1.42;;
33104;SDS011;19476;51.448;6.674;2023-07-31T12:13:25;3.15;;;1.17;;
33104;SDS011;19476;51.448;6.674;2023-07-31T12:15:58;2.00;;;1.00;;
33104;SDS011;19476;51.448;6.674;2023-07-31T12:18:27;2.83;;;1.25;;
33104;SDS011;19476;51.448;6.674;2023-07-31T12:23:20;2.53;;;1.13;;
33104;SDS011;19476;51.448;6.674;2023-07-31T12:26:12;2.50;;;1.25;;
33104;SDS011;19476;51.448;6.674;2023-07-31T12:31:11;4.00;;;1.08;;
33104;SDS011;19476;51.448;6.674;2023-07-31T12:33:38;2.47;;;1.20;;
33104;SDS011;19476;51.448;6.674;2023-07-31T12:36:09;2.38;;;1.15;;
33104;SDS011;19476;51.448;6.674;2023-07-31T12:38:39;2.95;;;1.20;;
33104;SDS011;19476;51.448;6.674;2023-07-31T12:41:05;3.80;;;1.02;;
33104;SDS011;19476;51.448;6.674;2023-07-31T12:43:32;1.83;;;0.85;;
33104;SDS011;19476;51.448;6.674;2023-07-31T12:45:58;1.60;;;0.95;;
33104;SDS011;19476;51.448;6.674;2023-07-31T12:48:24;2.72;;;1.15;;
33104;SDS011;19476;51.448;6.674;2023-07-31T12:50:50;1.15;;;0.93;;
33104;SDS011;19476;51.448;6.674;2023-07-31T12:53:16;3.30;;;1.23;;
33104;SDS011;19476;51.448;6.674;2023-07-31T12:55:42;2.10;;;1.20;;
33104;SDS011;19476;51.448;6.674;2023-07-31T12:58:08;2.80;;;1.30;;
33104;SDS011;19476;51.448;6.674;2023-07-31T13:00:35;4.15;;;1.40;;
33104;SDS011;19476;51.448;6.674;2023-07-31T13:03:01;2.72;;;1.20;;
33104;SDS011;19476;51.448;6.674;2023-07-31T13:05:27;2.30;;;1.40;;
33104;SDS011;19476;51.448;6.674;2023-07-31T13:07:53;2.05;;;1.17;;
33104;SDS011;19476;51.448;6.674;2023-07-31T13:10:20;1.80;;;1.20;;
33104;SDS011;19476;51.448;6.674;2023-07-31T13:12:45;3.03;;;1.20;;
33104;SDS011;19476;51.448;6.674;2023-07-31T13:15:11;4.03;;;1.80;;
33104;SDS011;19476;51.448;6.674;2023-07-31T13:17:37;2.50;;;1.30;;
33104;SDS011;19476;51.448;6.674;2023-07-31T13:20:03;3.35;;;1.65;;
33104;SDS011;19476;51.448;6.674;2023-07-31T13:22:30;3.03;;;1.48;;
33104;SDS011;19476;51.448;6.674;2023-07-31T13:24:56;2.90;;;1.70;;
33104;SDS011;19476;51.448;6.674;2023-07-31T13:27:22;3.35;;;1.40;;
33104;SDS011;19476;51.448;6.674;2023-07-31T13:29:49;2.45;;;1.25;;
33104;SDS011;19476;51.448;6.674;2023-07-31T13:32:19;3.50;;;1.85;;
33104;SDS011;19476;51.448;6.674;2023-07-31T13:34:46;2.20;;;1.20;;
33104;SDS011;19476;51.448;6.674;2023-07-31T13:37:12;4.57;;;1.92;;
33104;SDS011;19476;51.448;6.674;2023-07-31T13:39:39;2.85;;;1.55;;
33104;SDS011;19476;51.448;6.674;2023-07-31T13:42:06;4.32;;;1.88;;
33104;SDS011;19476;51.448;6.674;2023-07-31T13:44:34;4.85;;;1.95;;
33104;SDS011;19476;51.448;6.674;2023-07-31T13:47:00;5.15;;;1.75;;
33104;SDS011;19476;51.448;6.674;2023-07-31T13:49:26;3.42;;;1.92;;
33104;SDS011;19476;51.448;6.674;2023-07-31T13:51:52;4.10;;;1.88;;
33104;SDS011;19476;51.448;6.674;2023-07-31T13:54:18;4.03;;;1.80;;
33104;SDS011;19476;51.448;6.674;2023-07-31T13:56:44;2.97;;;1.77;;
33104;SDS011;19476;51.448;6.674;2023-07-31T13:59:10;2.55;;;1.70;;
33104;SDS011;19476;51.448;6.674;2023-07-31T14:01:36;3.70;;;1.70;;
33104;SDS011;19476;51.448;6.674;2023-07-31T14:04:01;3.28;;;1.60;;
33104;SDS011;19476;51.448;6.674;2023-07-31T14:06:27;4.57;;;1.95;;
33104;SDS011;19476;51.448;6.674;2023-07-31T14:08:53;3.40;;;1.80;;
33104;SDS011;19476;51.448;6.674;2023-07-31T14:11:20;3.78;;;1.58;;
33104;SDS011;19476;51.448;6.674;2023-07-31T14:13:47;3.13;;;1.73;;
33104;SDS011;19476;51.448;6.674;2023-07-31T14:16:12;5.15;;;1.98;;
33104;SDS011;19476;51.448;6.674;2023-07-31T14:18:38;4.45;;;1.88;;
33104;SDS011;19476;51.448;6.674;2023-07-31T14:21:04;5.45;;;1.98;;
33104;SDS011;19476;51.448;6.674;2023-07-31T14:23:30;4.72;;;1.80;;
33104;SDS011;19476;51.448;6.674;2023-07-31T14:25:56;5.20;;;1.83;;
33104;SDS011;19476;51.448;6.674;2023-07-31T14:28:22;4.70;;;1.77;;
33104;SDS011;19476;51.448;6.674;2023-07-31T14:30:47;4.97;;;2.03;;
33104;SDS011;19476;51.448;6.674;2023-07-31T14:33:13;3.88;;;2.33;;
33104;SDS011;19476;51.448;6.674;2023-07-31T14:35:39;4.22;;;2.03;;
33104;SDS011;19476;51.448;6.674;2023-07-31T14:38:04;2.92;;;1.58;;
33104;SDS011;19476;51.448;6.674;2023-07-31T14:40:30;3.58;;;1.60;;
33104;SDS011;19476;51.448;6.674;2023-07-31T14:42:56;3.85;;;1.88;;
33104;SDS011;19476;51.448;6.674;2023-07-31T14:45:23;3.55;;;1.75;;
33104;SDS011;19476;51.448;6.674;2023-07-31T14:47:48;3.95;;;1.80;;
33104;SDS011;19476;51.448;6.674;2023-07-31T14:50:14;3.92;;;2.00;;
33104;SDS011;19476;51.448;6.674;2023-07-31T14:52:40;3.50;;;1.85;;
33104;SDS011;19476;51.448;6.674;2023-07-31T14:55:06;5.40;;;1.98;;
33104;SDS011;19476;51.448;6.674;2023-07-31T14:57:32;4.03;;;2.22;;
33104;SDS011;19476;51.448;6.674;2023-07-31T14:59:58;3.10;;;1.60;;
33104;SDS011;19476;51.448;6.674;2023-07-31T15:02:26;2.72;;;1.67;;
33104;SDS011;19476;51.448;6.674;2023-07-31T15:04:52;3.17;;;1.80;;
33104;SDS011;19476;51.448;6.674;2023-07-31T15:07:18;4.72;;;1.90;;
33104;SDS011;19476;51.448;6.674;2023-07-31T15:09:44;4.47;;;2.00;;
33104;SDS011;19476;51.448;6.674;2023-07-31T15:12:10;5.10;;;1.75;;
33104;SDS011;19476;51.448;6.674;2023-07-31T15:14:35;3.53;;;1.90;;